Élőkép

Információk

Albatrosz Repülő Egyesület
8000 Székesfehérvár,
Radványi utca 6.

Adószám:
19092908-2-07

Bankszámla szám:
Budapest Bank
10102952-01361819-00000001

Telefon: +36 30 9598-897

Telephey: Börgönd repülőtér

Börgöndi repülõtér

LHBP METAR/TAF

[source: ADDS]
METAR
TAF LHBP 261700Z 2618/2718 05005KT CAVOK BECMG 2706/2709 SCT040 TEMPO 2709/2718 VRB15G30KT 5000 SHRA TSRA SCT020 SCT035CB BKN045 PROB30 TEMPO 2712/2718 2000 +SHRA TSRA BKN015CB TAF
TAF LHBP 261700Z 2618/2718 05005KT CAVOK BECMG 2706/2709 SCT040 TEMPO 2709/2718 VRB15G30KT 5000 SHRA TSRA SCT020 SCT035CB BKN045 PROB30 TEMPO 2712/2718 2000 +SHRA TSRA BKN015CB =
SR / SS: 03:20 / 18:28 UTC (Börgönd 2014-07-26)
Hungarian Chinese (Simplified) Croatian Czech English Finnish French German Hebrew Italian Japanese Polish Portuguese Romanian Russian Serbian Slovak Slovenian Spanish

Belépés tagoknak